Time;durP1;ratioP1;P1;durP2;ratioP2;P2;SDS_P1;SDS_P2;PMS_P1;PMS_P2;Temp;Humidity;BMP_temperature;BMP_pressure;BME280_temperature;BME280_humidity;BME280_pressure;Samples;Min_cycle;Max_cycle;Signal;HPM_P1;HPM_P2
2023/12/10 00:01:34;;;;;;;0.20;0.20;;;;;;;;;;5089655;28;20039;-75
2023/12/10 00:04:02;;;;;;;0.15;0.15;;;;;;;;;;5089636;28;20111;-74
2023/12/10 00:06:28;;;;;;;0.10;0.10;;;;;;;;;;5089838;28;20471;-75
2023/12/10 00:08:56;;;;;;;1.52;1.45;;;;;;;;;;5089291;28;20027;-75
2023/12/10 00:11:22;;;;;;;0.75;0.75;;;;;;;;;;5089335;28;20044;-75
2023/12/10 00:13:49;;;;;;;0.10;0.10;;;;;;;;;;5071177;28;20443;-74
2023/12/10 00:16:16;;;;;;;0.10;0.10;;;;;;;;;;5070936;28;20487;-75
2023/12/10 00:18:43;;;;;;;1.00;1.00;;;;;;;;;;5089261;28;20028;-74
2023/12/10 00:21:12;;;;;;;0.20;0.20;;;;;;;;;;5089011;28;20502;-75
2023/12/10 00:23:39;;;;;;;0.20;0.20;;;;;;;;;;5089187;28;20020;-75
2023/12/10 00:26:05;;;;;;;0.30;0.30;;;;;;;;;;5089186;28;20085;-73
2023/12/10 00:28:32;;;;;;;0.30;0.30;;;;;;;;;;5089519;28;20032;-74
2023/12/10 00:30:58;;;;;;;0.20;0.20;;;;;;;;;;5089615;28;20063;-74
2023/12/10 00:33:24;;;;;;;0.20;0.20;;;;;;;;;;5070798;28;20131;-75
2023/12/10 00:35:51;;;;;;;0.38;0.38;;;;;;;;;;5088845;28;20059;-74
2023/12/10 00:38:17;;;;;;;0.10;0.10;;;;;;;;;;5089224;28;20027;-74
2023/12/10 00:40:43;;;;;;;0.40;0.40;;;;;;;;;;5089259;28;20028;-75
2023/12/10 00:43:12;;;;;;;0.20;0.20;;;;;;;;;;5089655;28;20119;-75
2023/12/10 00:45:39;;;;;;;0.10;0.10;;;;;;;;;;5089170;28;20027;-75
2023/12/10 00:48:06;;;;;;;0.20;0.20;;;;;;;;;;5090139;28;20035;-75
2023/12/10 00:50:32;;;;;;;0.10;0.10;;;;;;;;;;5091285;28;20076;-76
2023/12/10 00:52:58;;;;;;;0.20;0.20;;;;;;;;;;5091638;28;20024;-76
2023/12/10 00:55:25;;;;;;;1.88;1.73;;;;;;;;;;5091530;28;20028;-75
2023/12/10 00:57:52;;;;;;;1.13;1.10;;;;;;;;;;5090599;28;20027;-74
2023/12/10 01:00:19;;;;;;;0.10;0.10;;;;;;;;;;5090609;28;20039;-75
2023/12/10 01:02:56;;;;;;;0.35;0.35;;;;;;;;;;5072485;28;20027;-74
2023/12/10 01:05:22;;;;;;;0.80;0.80;;;;;;;;;;5072529;28;20090;-74
2023/12/10 01:07:48;;;;;;;3.28;3.05;;;;;;;;;;5090898;28;20036;-74
2023/12/10 01:10:15;;;;;;;0.20;0.20;;;;;;;;;;5090751;28;20364;-75
2023/12/10 01:12:46;;;;;;;0.30;0.30;;;;;;;;;;5090702;28;20040;-76
2023/12/10 01:15:13;;;;;;;0.20;0.20;;;;;;;;;;5072481;28;20024;-75
2023/12/10 01:17:39;;;;;;;0.60;0.60;;;;;;;;;;5090511;28;20495;-76
2023/12/10 01:20:06;;;;;;;1.02;1.02;;;;;;;;;;5090409;28;20299;-76
2023/12/10 01:22:33;;;;;;;0.28;0.28;;;;;;;;;;5090164;28;20117;-76
2023/12/10 01:25:00;;;;;;;0.20;0.20;;;;;;;;;;5090225;28;20024;-76
2023/12/10 01:27:27;;;;;;;1.00;0.90;;;;;;;;;;5055509;28;20043;-75
2023/12/10 01:29:53;;;;;;;0.30;0.30;;;;;;;;;;5072184;28;20394;-75
2023/12/10 01:32:20;;;;;;;0.10;0.10;;;;;;;;;;5090373;28;20020;-76
2023/12/10 01:34:46;;;;;;;0.55;0.55;;;;;;;;;;5071566;28;20038;-75
2023/12/10 01:37:13;;;;;;;0.10;0.10;;;;;;;;;;5085568;28;20244;-75
2023/12/10 01:39:39;;;;;;;0.10;0.10;;;;;;;;;;5069673;28;20488;-75
2023/12/10 01:42:05;;;;;;;0.10;0.10;;;;;;;;;;5051588;28;20024;-76
2023/12/10 01:44:32;;;;;;;0.10;0.10;;;;;;;;;;5069756;28;20053;-76
2023/12/10 01:46:59;;;;;;;0.15;0.15;;;;;;;;;;5067054;28;20851;-76
2023/12/10 01:49:28;;;;;;;0.10;0.10;;;;;;;;;;5070473;28;20058;-75
2023/12/10 01:51:55;;;;;;;0.10;0.10;;;;;;;;;;5071651;28;20423;-74
2023/12/10 01:54:23;;;;;;;0.10;0.10;;;;;;;;;;5071675;28;20025;-75
2023/12/10 01:56:49;;;;;;;7.93;4.28;;;;;;;;;;5052066;28;20077;-75
2023/12/10 01:59:20;;;;;;;0.20;0.20;;;;;;;;;;5070119;28;20024;-75
2023/12/10 02:01:46;;;;;;;0.20;0.20;;;;;;;;;;5069476;28;20039;-74
2023/12/10 02:04:17;;;;;;;0.20;0.20;;;;;;;;;;5070836;28;20032;-75
2023/12/10 02:06:44;;;;;;;2.80;2.70;;;;;;;;;;5073258;28;20035;-76
2023/12/10 02:09:17;;;;;;;0.17;0.17;;;;;;;;;;5073394;28;20146;-73
2023/12/10 02:11:44;;;;;;;0.13;0.13;;;;;;;;;;5077503;28;20098;-76
2023/12/10 02:14:10;;;;;;;0.10;0.10;;;;;;;;;;5077467;28;20054;-74
2023/12/10 02:16:36;;;;;;;0.10;0.10;;;;;;;;;;5077850;28;20357;-75
2023/12/10 02:19:03;;;;;;;0.10;0.10;;;;;;;;;;5077375;28;20039;-74
2023/12/10 02:21:30;;;;;;;0.20;0.20;;;;;;;;;;5059486;28;20037;-75
2023/12/10 02:24:04;;;;;;;0.15;0.15;;;;;;;;;;5059645;28;20071;-74
2023/12/10 02:26:32;;;;;;;0.10;0.10;;;;;;;;;;5077711;28;20029;-76
2023/12/10 02:28:58;;;;;;;0.20;0.20;;;;;;;;;;5077569;28;20111;-76
2023/12/10 02:31:25;;;;;;;0.10;0.10;;;;;;;;;;5042699;28;20028;-75
2023/12/10 02:33:52;;;;;;;7.13;6.70;;;;;;;;;;5077045;28;20028;-76
2023/12/10 02:36:18;;;;;;;0.10;0.10;;;;;;;;;;5077059;28;20021;-76
2023/12/10 02:38:49;;;;;;;0.20;0.20;;;;;;;;;;5059376;28;20039;-75
2023/12/10 02:41:16;;;;;;;0.20;0.20;;;;;;;;;;5042386;28;20365;-79
2023/12/10 02:43:42;;;;;;;0.10;0.10;;;;;;;;;;5059185;28;20472;-78
2023/12/10 02:46:08;;;;;;;0.10;0.10;;;;;;;;;;5076776;28;20480;-77
2023/12/10 02:48:36;;;;;;;0.10;0.10;;;;;;;;;;5076689;28;20024;-78
2023/12/10 02:51:05;;;;;;;1.00;0.50;;;;;;;;;;5058881;28;20029;-77
2023/12/10 02:53:31;;;;;;;0.50;0.45;;;;;;;;;;5076640;28;20029;-76
2023/12/10 02:56:00;;;;;;;0.22;0.22;;;;;;;;;;5076752;28;20066;-75
2023/12/10 02:58:26;;;;;;;0.40;0.40;;;;;;;;;;5082727;28;20067;-75
2023/12/10 03:00:53;;;;;;;0.10;0.10;;;;;;;;;;5097171;28;20040;-75
2023/12/10 03:03:18;;;;;;;0.20;0.20;;;;;;;;;;5096796;28;20028;-76
2023/12/10 03:05:44;;;;;;;0.10;0.10;;;;;;;;;;5096679;28;20027;-76
2023/12/10 03:08:10;;;;;;;0.20;0.20;;;;;;;;;;5078752;28;20043;-76
2023/12/10 03:10:36;;;;;;;0.13;0.13;;;;;;;;;;5096337;28;20036;-76
2023/12/10 03:13:01;;;;;;;0.10;0.10;;;;;;;;;;5096789;28;20024;-75
2023/12/10 03:15:27;;;;;;;0.13;0.13;;;;;;;;;;5096651;28;20028;-75
2023/12/10 03:17:53;;;;;;;0.28;0.28;;;;;;;;;;5096538;28;20091;-75
2023/12/10 03:20:18;;;;;;;0.20;0.20;;;;;;;;;;5096237;28;20032;-75
2023/12/10 03:22:44;;;;;;;0.10;0.10;;;;;;;;;;5095130;28;20383;-75
2023/12/10 03:25:10;;;;;;;0.10;0.10;;;;;;;;;;5096439;28;20059;-76
2023/12/10 03:27:36;;;;;;;0.20;0.20;;;;;;;;;;5078359;28;20024;-76
2023/12/10 03:30:02;;;;;;;0.20;0.20;;;;;;;;;;5096372;28;20051;-79
2023/12/10 03:32:27;;;;;;;1.95;0.95;;;;;;;;;;5096403;28;20368;-77
2023/12/10 03:34:53;;;;;;;0.22;0.22;;;;;;;;;;5096537;28;20092;-79
2023/12/10 03:37:21;;;;;;;0.20;0.20;;;;;;;;;;5096269;28;20020;-78
2023/12/10 03:39:46;;;;;;;1.85;1.55;;;;;;;;;;5078272;28;20097;-79
2023/12/10 03:42:12;;;;;;;0.20;0.20;;;;;;;;;;5096635;28;20471;-75
2023/12/10 03:44:40;;;;;;;1.20;1.13;;;;;;;;;;5096102;28;20552;-75
2023/12/10 03:47:06;;;;;;;0.32;0.32;;;;;;;;;;5078184;28;20028;-75
2023/12/10 03:49:31;;;;;;;0.10;0.10;;;;;;;;;;5096190;28;20027;-75
2023/12/10 03:51:58;;;;;;;0.13;0.13;;;;;;;;;;5096451;28;20023;-75
2023/12/10 03:54:24;;;;;;;0.10;0.10;;;;;;;;;;5096489;28;20032;-76
2023/12/10 03:56:50;;;;;;;0.10;0.10;;;;;;;;;;5097486;28;20078;-75
2023/12/10 03:59:15;;;;;;;0.10;0.10;;;;;;;;;;5098659;28;20124;-75
2023/12/10 04:01:44;;;;;;;0.10;0.10;;;;;;;;;;5097906;28;20024;-75
2023/12/10 04:04:11;;;;;;;0.10;0.10;;;;;;;;;;5076469;28;20025;-75
2023/12/10 04:06:40;;;;;;;0.10;0.10;;;;;;;;;;5072724;28;20020;-76
2023/12/10 04:09:06;;;;;;;0.17;0.17;;;;;;;;;;5071832;28;20029;-76
2023/12/10 04:11:32;;;;;;;0.20;0.20;;;;;;;;;;5071140;28;20385;-76
2023/12/10 04:13:58;;;;;;;0.10;0.10;;;;;;;;;;5071081;28;20036;-76
2023/12/10 04:16:27;;;;;;;0.95;0.95;;;;;;;;;;5071628;28;20024;-75
2023/12/10 04:18:53;;;;;;;0.20;0.20;;;;;;;;;;5053325;28;20036;-75
2023/12/10 04:21:20;;;;;;;0.10;0.10;;;;;;;;;;5071166;28;20037;-75
2023/12/10 04:23:45;;;;;;;0.40;0.40;;;;;;;;;;5053282;28;20040;-76
2023/12/10 04:26:11;;;;;;;0.10;0.10;;;;;;;;;;5071123;28;20533;-76
2023/12/10 04:28:40;;;;;;;0.10;0.10;;;;;;;;;;5071126;28;20025;-76
2023/12/10 04:31:06;;;;;;;0.20;0.20;;;;;;;;;;5071687;28;20029;-75
2023/12/10 04:33:32;;;;;;;0.10;0.10;;;;;;;;;;5070838;28;20305;-74
2023/12/10 04:35:57;;;;;;;0.10;0.10;;;;;;;;;;5071101;28;20028;-74
2023/12/10 04:38:23;;;;;;;0.10;0.10;;;;;;;;;;5071334;28;20033;-74
2023/12/10 04:40:49;;;;;;;0.10;0.10;;;;;;;;;;5070912;28;20086;-75
2023/12/10 04:43:14;;;;;;;0.10;0.10;;;;;;;;;;5070752;28;20112;-75
2023/12/10 04:45:41;;;;;;;0.17;0.17;;;;;;;;;;5070711;28;20035;-74
2023/12/10 04:48:07;;;;;;;0.13;0.13;;;;;;;;;;5070755;28;20518;-74
2023/12/10 04:50:32;;;;;;;0.10;0.10;;;;;;;;;;5070872;28;20036;-75
2023/12/10 04:52:58;;;;;;;0.10;0.10;;;;;;;;;;5070653;28;20066;-74
2023/12/10 04:55:27;;;;;;;0.10;0.10;;;;;;;;;;5052553;28;20041;-75
2023/12/10 04:57:53;;;;;;;0.20;0.20;;;;;;;;;;5070496;28;20070;-76
2023/12/10 05:00:19;;;;;;;0.20;0.20;;;;;;;;;;5070415;28;20425;-75
2023/12/10 05:02:44;;;;;;;0.10;0.10;;;;;;;;;;5070208;28;20028;-75
2023/12/10 05:05:10;;;;;;;0.10;0.10;;;;;;;;;;5070368;28;20029;-74
2023/12/10 05:07:36;;;;;;;0.20;0.20;;;;;;;;;;5070074;28;20028;-75
2023/12/10 05:10:02;;;;;;;0.10;0.10;;;;;;;;;;5070032;28;20021;-75
2023/12/10 05:12:28;;;;;;;2.38;2.28;;;;;;;;;;5051851;28;20049;-75
2023/12/10 05:14:54;;;;;;;0.10;0.10;;;;;;;;;;5070265;28;20043;-75
2023/12/10 05:17:19;;;;;;;0.10;0.10;;;;;;;;;;5069981;28;20487;-74
2023/12/10 05:19:45;;;;;;;0.52;0.52;;;;;;;;;;5069716;28;20162;-75
2023/12/10 05:22:11;;;;;;;0.17;0.17;;;;;;;;;;5070732;28;20036;-75
2023/12/10 05:24:36;;;;;;;0.40;0.40;;;;;;;;;;5069759;28;20025;-75
2023/12/10 05:27:02;;;;;;;0.10;0.10;;;;;;;;;;5052005;28;20033;-76
2023/12/10 05:29:28;;;;;;;0.10;0.10;;;;;;;;;;5070050;28;20372;-75
2023/12/10 05:31:53;;;;;;;0.32;0.32;;;;;;;;;;5069824;28;20032;-76
2023/12/10 05:34:19;;;;;;;0.10;0.10;;;;;;;;;;5052294;28;20031;-75
2023/12/10 05:36:45;;;;;;;0.10;0.10;;;;;;;;;;5051785;28;20039;-75
2023/12/10 05:39:10;;;;;;;0.10;0.10;;;;;;;;;;5069672;28;20472;-75
2023/12/10 05:41:37;;;;;;;0.10;0.10;;;;;;;;;;5070052;28;20048;-76
2023/12/10 05:44:02;;;;;;;0.10;0.10;;;;;;;;;;5069035;28;20029;-75
2023/12/10 05:46:28;;;;;;;0.20;0.20;;;;;;;;;;5051503;28;20028;-76
2023/12/10 05:48:54;;;;;;;0.10;0.10;;;;;;;;;;5070164;28;20024;-76
2023/12/10 05:51:20;;;;;;;0.10;0.10;;;;;;;;;;5052197;28;20036;-75
2023/12/10 05:53:45;;;;;;;0.10;0.10;;;;;;;;;;5069974;28;20027;-74
2023/12/10 05:56:11;;;;;;;0.20;0.20;;;;;;;;;;5069580;28;20024;-74
2023/12/10 05:58:37;;;;;;;0.10;0.10;;;;;;;;;;5075327;28;20032;-76
2023/12/10 06:01:03;;;;;;;0.17;0.17;;;;;;;;;;5087636;28;20081;-75
2023/12/10 06:03:29;;;;;;;0.10;0.10;;;;;;;;;;5089544;28;20027;-76
2023/12/10 06:05:54;;;;;;;0.10;0.10;;;;;;;;;;5089374;28;20070;-76
2023/12/10 06:08:20;;;;;;;0.10;0.10;;;;;;;;;;5091817;28;20028;-75
2023/12/10 06:10:46;;;;;;;0.40;0.40;;;;;;;;;;5090694;28;20060;-76
2023/12/10 06:13:12;;;;;;;0.10;0.10;;;;;;;;;;5090103;28;20111;-76
2023/12/10 06:15:38;;;;;;;0.10;0.10;;;;;;;;;;5071819;28;20032;-77
2023/12/10 06:18:04;;;;;;;0.20;0.20;;;;;;;;;;5071231;28;20023;-78
2023/12/10 06:20:30;;;;;;;0.10;0.10;;;;;;;;;;5088901;28;20871;-76
2023/12/10 06:22:55;;;;;;;0.20;0.20;;;;;;;;;;5089690;28;20020;-77
2023/12/10 06:25:22;;;;;;;0.10;0.10;;;;;;;;;;5070034;28;20425;-74
2023/12/10 06:27:48;;;;;;;0.10;0.10;;;;;;;;;;5089036;28;20020;-75
2023/12/10 06:30:14;;;;;;;0.20;0.20;;;;;;;;;;5088592;28;20486;-75
2023/12/10 06:32:40;;;;;;;0.10;0.10;;;;;;;;;;5086491;28;20108;-75
2023/12/10 06:35:06;;;;;;;0.20;0.20;;;;;;;;;;5089369;28;20063;-75
2023/12/10 06:37:32;;;;;;;0.10;0.10;;;;;;;;;;5089505;28;20028;-75
2023/12/10 06:39:58;;;;;;;0.20;0.20;;;;;;;;;;5089345;28;20054;-75
2023/12/10 06:42:24;;;;;;;0.10;0.10;;;;;;;;;;5089310;28;20038;-73
2023/12/10 06:44:49;;;;;;;0.10;0.10;;;;;;;;;;5089106;28;20456;-75
2023/12/10 06:47:15;;;;;;;0.15;0.15;;;;;;;;;;5089270;28;20031;-76
2023/12/10 06:49:41;;;;;;;0.10;0.10;;;;;;;;;;5070718;28;20111;-74
2023/12/10 06:55:35;;;;;;;0.13;0.13;;;;;;;;;;5087932;28;20085;-73
2023/12/10 07:01:29;;;;;;;0.10;0.10;;;;;;;;;;5092506;28;20085;-74
2023/12/10 07:03:55;;;;;;;0.10;0.10;;;;;;;;;;5092976;28;20399;-75
2023/12/10 07:06:21;;;;;;;0.20;0.20;;;;;;;;;;5092755;28;20063;-75
2023/12/10 07:08:47;;;;;;;0.10;0.10;;;;;;;;;;5092854;28;20056;-75
2023/12/10 07:11:13;;;;;;;0.10;0.10;;;;;;;;;;5074599;28;20055;-75
2023/12/10 07:13:39;;;;;;;0.10;0.10;;;;;;;;;;5093657;28;20112;-75
2023/12/10 07:16:05;;;;;;;0.10;0.10;;;;;;;;;;5089968;28;20043;-75
2023/12/10 07:18:31;;;;;;;0.10;0.10;;;;;;;;;;5092629;28;20032;-76
2023/12/10 07:20:57;;;;;;;0.20;0.20;;;;;;;;;;5092705;28;20395;-74
2023/12/10 07:23:23;;;;;;;0.10;0.10;;;;;;;;;;5092508;28;20024;-75
2023/12/10 07:25:48;;;;;;;0.10;0.10;;;;;;;;;;5092557;28;20536;-75
2023/12/10 07:28:14;;;;;;;0.20;0.20;;;;;;;;;;5074617;28;20024;-75
2023/12/10 07:30:40;;;;;;;0.20;0.20;;;;;;;;;;5092495;28;20038;-75
2023/12/10 07:33:06;;;;;;;0.20;0.20;;;;;;;;;;5092425;28;20391;-76
2023/12/10 07:35:32;;;;;;;0.10;0.10;;;;;;;;;;5092024;28;20107;-75
2023/12/10 07:37:58;;;;;;;0.10;0.10;;;;;;;;;;5092124;28;20032;-76
2023/12/10 07:40:23;;;;;;;0.10;0.10;;;;;;;;;;5092087;28;20036;-77
2023/12/10 07:42:49;;;;;;;0.10;0.10;;;;;;;;;;5092332;28;20027;-76
2023/12/10 07:45:15;;;;;;;0.10;0.10;;;;;;;;;;5092056;28;20059;-76
2023/12/10 07:47:40;;;;;;;0.47;0.47;;;;;;;;;;5091921;28;20429;-74
2023/12/10 07:50:07;;;;;;;0.10;0.10;;;;;;;;;;5074355;28;20036;-76
2023/12/10 07:52:33;;;;;;;0.10;0.10;;;;;;;;;;5092118;28;20028;-76
2023/12/10 07:54:59;;;;;;;0.20;0.20;;;;;;;;;;5091966;28;20039;-76
2023/12/10 07:57:25;;;;;;;0.10;0.10;;;;;;;;;;5092072;28;20028;-75
2023/12/10 07:59:51;;;;;;;0.10;0.10;;;;;;;;;;5091831;28;20101;-76
2023/12/10 08:02:18;;;;;;;0.10;0.10;;;;;;;;;;5090205;28;21005;-76
2023/12/10 08:04:44;;;;;;;0.10;0.10;;;;;;;;;;5090220;28;20035;-76
2023/12/10 08:07:10;;;;;;;0.10;0.10;;;;;;;;;;5055772;28;20032;-79
2023/12/10 08:09:36;;;;;;;0.25;0.22;;;;;;;;;;5091729;28;20059;-81
2023/12/10 08:12:02;;;;;;;0.10;0.10;;;;;;;;;;5091482;28;20568;-80
2023/12/10 08:14:28;;;;;;;0.10;0.10;;;;;;;;;;5056929;28;20036;-77
2023/12/10 08:16:54;;;;;;;0.10;0.10;;;;;;;;;;5092730;28;20024;-77
2023/12/10 08:19:20;;;;;;;0.10;0.10;;;;;;;;;;5092685;28;20040;-76
2023/12/10 08:21:46;;;;;;;0.10;0.10;;;;;;;;;;5091461;28;20036;-77
2023/12/10 08:24:12;;;;;;;0.10;0.10;;;;;;;;;;5073590;28;20438;-76
2023/12/10 08:26:38;;;;;;;0.15;0.15;;;;;;;;;;5091454;28;20024;-76
2023/12/10 08:29:05;;;;;;;0.20;0.20;;;;;;;;;;5073527;28;20032;-75
2023/12/10 08:31:31;;;;;;;0.10;0.10;;;;;;;;;;5073139;28;20072;-77
2023/12/10 08:33:57;;;;;;;0.20;0.20;;;;;;;;;;5073199;28;20035;-77
2023/12/10 08:36:23;;;;;;;0.10;0.10;;;;;;;;;;5091272;28;20016;-79
2023/12/10 08:38:49;;;;;;;0.10;0.10;;;;;;;;;;5091555;28;20032;-78
2023/12/10 08:41:16;;;;;;;0.20;0.20;;;;;;;;;;5084749;28;20035;-78
2023/12/10 08:43:42;;;;;;;0.25;0.25;;;;;;;;;;5091031;28;20032;-79
2023/12/10 08:46:08;;;;;;;0.10;0.10;;;;;;;;;;5091714;28;20360;-75
2023/12/10 08:48:34;;;;;;;0.10;0.10;;;;;;;;;;5091040;28;20029;-77
2023/12/10 08:51:00;;;;;;;0.10;0.10;;;;;;;;;;5091381;28;20042;-79
2023/12/10 08:53:26;;;;;;;0.10;0.10;;;;;;;;;;5091380;28;20103;-75
2023/12/10 08:55:52;;;;;;;0.10;0.10;;;;;;;;;;5090878;28;20020;-81
2023/12/10 08:58:19;;;;;;;0.30;0.30;;;;;;;;;;5090672;28;20426;-77
2023/12/10 09:00:45;;;;;;;0.20;0.20;;;;;;;;;;5090633;28;20035;-81
2023/12/10 09:03:11;;;;;;;0.40;0.40;;;;;;;;;;5090561;28;20021;-77
2023/12/10 09:05:58;;;;;;;0.80;0.40;;;;;;;;;;5090515;28;20052;-78
2023/12/10 09:09:20;;;;;;;0.10;0.10;;;;;;;;;;5090860;28;20047;-75
2023/12/10 09:12:46;;;;;;;0.20;0.20;;;;;;;;;;5072712;28;20059;-76
2023/12/10 09:15:15;;;;;;;0.65;0.40;;;;;;;;;;5053318;28;20106;-76
2023/12/10 09:17:55;;;;;;;1.17;0.40;;;;;;;;;;5073449;28;20032;-73
2023/12/10 09:20:37;;;;;;;1.05;0.75;;;;;;;;;;5088228;28;20059;-74
2023/12/10 09:23:17;;;;;;;0.45;0.20;;;;;;;;;;5089010;28;20076;-72
2023/12/10 09:25:44;;;;;;;1.88;1.13;;;;;;;;;;5090378;28;20356;-72
2023/12/10 09:28:20;;;;;;;0.35;0.35;;;;;;;;;;5090304;28;20076;-72
2023/12/10 09:30:56;;;;;;;0.20;0.20;;;;;;;;;;5090454;28;20375;-72
2023/12/10 09:33:23;;;;;;;1.67;0.40;;;;;;;;;;5090275;28;20024;-72
2023/12/10 09:35:51;;;;;;;0.40;0.30;;;;;;;;;;5086234;28;20035;-72
2023/12/10 09:38:20;;;;;;;0.30;0.30;;;;;;;;;;5079973;28;20077;-72
2023/12/10 09:40:56;;;;;;;3.20;1.48;;;;;;;;;;5069402;28;20039;-72
2023/12/10 09:43:57;;;;;;;4.28;0.60;;;;;;;;;;5076736;28;20100;-72
2023/12/10 09:46:30;;;;;;;3.05;0.40;;;;;;;;;;5047329;28;20047;-71
2023/12/10 09:49:03;;;;;;;1.45;0.70;;;;;;;;;;5069762;28;20024;-73
2023/12/10 09:51:41;;;;;;;3.83;1.25;;;;;;;;;;5070592;28;20381;-71
2023/12/10 09:54:11;;;;;;;3.78;0.77;;;;;;;;;;5074524;28;20028;-72
2023/12/10 09:56:45;;;;;;;1.05;0.30;;;;;;;;;;5058682;28;20452;-71
2023/12/10 09:59:20;;;;;;;0.50;0.50;;;;;;;;;;5069698;28;20376;-71
2023/12/10 10:01:50;;;;;;;1.65;0.65;;;;;;;;;;5069055;28;20090;-71
2023/12/10 10:04:35;;;;;;;0.20;0.20;;;;;;;;;;5069725;28;20503;-72
2023/12/10 10:07:08;;;;;;;4.85;0.88;;;;;;;;;;5069640;28;20029;-71
2023/12/10 10:09:44;;;;;;;10.40;1.27;;;;;;;;;;5069404;28;20554;-71
2023/12/10 10:12:27;;;;;;;2.10;0.88;;;;;;;;;;5052039;28;20044;-72
2023/12/10 10:14:57;;;;;;;6.13;1.40;;;;;;;;;;5051614;28;20527;-71
2023/12/10 10:17:37;;;;;;;0.98;0.40;;;;;;;;;;5069447;28;20029;-71
2023/12/10 10:20:09;;;;;;;0.63;0.63;;;;;;;;;;5069502;28;20036;-72
2023/12/10 10:22:36;;;;;;;1.35;0.45;;;;;;;;;;5069824;28;20028;-72
2023/12/10 10:25:03;;;;;;;0.20;0.20;;;;;;;;;;5069973;28;20107;-72
2023/12/10 10:27:33;;;;;;;0.40;0.40;;;;;;;;;;5069434;28;20032;-74
2023/12/10 10:30:08;;;;;;;7.22;1.20;;;;;;;;;;5069087;28;20094;-71
2023/12/10 10:33:05;;;;;;;2.05;0.65;;;;;;;;;;5073219;28;20029;-71
2023/12/10 10:35:39;;;;;;;4.85;0.60;;;;;;;;;;5073470;28;20039;-71
2023/12/10 10:38:31;;;;;;;7.22;1.38;;;;;;;;;;5073436;28;20478;-72
2023/12/10 10:41:02;;;;;;;3.13;0.52;;;;;;;;;;5073061;28;20152;-72
2023/12/10 10:43:31;;;;;;;;;;;;;;;;;;5073569;28;20029;-72
2023/12/10 10:46:01;;;;;;;0.73;0.52;;;;;;;;;;5072572;28;20447;-72
2023/12/10 10:48:38;;;;;;;5.30;1.10;;;;;;;;;;5055100;28;20062;-71
2023/12/10 10:54:22;;;;;;;4.78;0.95;;;;;;;;;;5072751;28;20052;-73
2023/12/10 10:56:54;;;;;;;;;;;;;;;;;;5073245;28;20479;-72
2023/12/10 10:59:33;;;;;;;2.83;0.95;;;;;;;;;;5072804;28;19908;-71
2023/12/10 11:02:16;;;;;;;0.60;0.60;;;;;;;;;;5077785;28;20031;-73
2023/12/10 11:04:47;;;;;;;0.50;0.50;;;;;;;;;;5091623;28;20055;-71
2023/12/10 11:07:28;;;;;;;1.48;0.30;;;;;;;;;;5091830;28;20038;-71
2023/12/10 11:10:46;;;;;;;0.30;0.30;;;;;;;;;;5072496;28;20055;-72
2023/12/10 11:13:40;;;;;;;2.17;0.77;;;;;;;;;;5069037;28;20510;-71
2023/12/10 11:16:08;;;;;;;2.83;1.85;;;;;;;;;;5028815;28;20053;-73
2023/12/10 11:18:54;;;;;;;0.50;0.50;;;;;;;;;;5048002;28;20036;-72
2023/12/10 11:21:29;;;;;;;7.80;1.52;;;;;;;;;;5071706;28;20036;-74
2023/12/10 11:24:01;;;;;;;3.72;1.23;;;;;;;;;;5069306;28;20082;-70
2023/12/10 11:26:30;;;;;;;2.72;0.95;;;;;;;;;;5072147;28;20024;-71
2023/12/10 11:28:57;;;;;;;1.92;0.50;;;;;;;;;;5072663;28;20094;-74
2023/12/10 11:31:35;;;;;;;1.00;0.80;;;;;;;;;;5072538;28;20085;-72
2023/12/10 11:34:06;;;;;;;0.63;0.60;;;;;;;;;;5072243;28;20028;-71
2023/12/10 11:36:45;;;;;;;4.28;0.88;;;;;;;;;;5072029;28;20021;-72
2023/12/10 11:39:14;;;;;;;3.20;0.95;;;;;;;;;;5037917;28;20028;-72
2023/12/10 11:41:56;;;;;;;5.25;1.48;;;;;;;;;;5071539;28;20438;-71
2023/12/10 11:45:07;;;;;;;0.95;0.80;;;;;;;;;;5072100;28;20039;-71
2023/12/10 11:48:19;;;;;;;2.35;0.75;;;;;;;;;;5071314;28;20097;-72
2023/12/10 11:50:55;;;;;;;2.95;2.72;;;;;;;;;;5067582;28;20492;-71
2023/12/10 11:53:25;;;;;;;7.38;2.13;;;;;;;;;;5071790;28;20055;-71
2023/12/10 11:55:52;;;;;;;;;;;;;;;;;;5071913;28;20081;-72
2023/12/10 11:59:00;;;;;;;5.63;0.80;;;;;;;;;;5071926;28;19968;-71
2023/12/10 12:01:48;;;;;;;0.85;0.50;;;;;;;;;;5071658;28;20041;-70
2023/12/10 12:04:16;;;;;;;0.30;0.30;;;;;;;;;;5071874;28;20504;-71
2023/12/10 12:06:55;;;;;;;1.90;0.50;;;;;;;;;;5071500;28;20044;-72
2023/12/10 12:09:25;;;;;;;0.30;0.30;;;;;;;;;;5071471;28;20103;-71
2023/12/10 12:11:56;;;;;;;0.50;0.50;;;;;;;;;;5070837;28;20140;-72
2023/12/10 12:17:50;;;;;;;0.65;0.63;;;;;;;;;;5070265;28;20059;-72
2023/12/10 12:20:45;;;;;;;1.25;0.73;;;;;;;;;;5071253;28;20085;-73
2023/12/10 12:23:11;;;;;;;2.20;0.93;;;;;;;;;;5071457;28;20052;-74
2023/12/10 12:25:42;;;;;;;5.38;1.27;;;;;;;;;;5071150;28;20020;-72
2023/12/10 12:28:09;;;;;;;0.57;0.57;;;;;;;;;;5071089;28;20108;-72
2023/12/10 12:30:42;;;;;;;2.30;0.85;;;;;;;;;;5071496;28;20064;-71
2023/12/10 12:33:26;;;;;;;1.17;0.65;;;;;;;;;;5071246;28;20051;-73
2023/12/10 12:36:09;;;;;;;3.53;0.95;;;;;;;;;;5052791;28;20036;-71
2023/12/10 12:38:39;;;;;;;4.40;0.82;;;;;;;;;;5070865;28;20020;-72
2023/12/10 12:41:12;;;;;;;0.90;0.90;;;;;;;;;;5070714;28;20085;-73
2023/12/10 12:43:53;;;;;;;1.10;0.65;;;;;;;;;;5071011;28;20044;-72
2023/12/10 12:46:44;;;;;;;4.45;2.28;;;;;;;;;;5070907;28;20166;-73
2023/12/10 12:49:21;;;;;;;3.53;2.33;;;;;;;;;;5071089;28;20484;-73
2023/12/10 12:51:51;;;;;;;0.55;0.55;;;;;;;;;;5070434;28;20068;-74
2023/12/10 12:54:21;;;;;;;1.98;1.40;;;;;;;;;;5070069;28;20429;-73
2023/12/10 12:56:57;;;;;;;6.75;1.40;;;;;;;;;;5053476;28;20028;-74
2023/12/10 12:59:28;;;;;;;1.55;1.45;;;;;;;;;;5070391;28;20085;-72
2023/12/10 13:01:55;;;;;;;2.95;1.83;;;;;;;;;;5070028;28;20051;-73
2023/12/10 13:04:34;;;;;;;0.60;0.57;;;;;;;;;;5070815;28;20032;-73
2023/12/10 13:07:06;;;;;;;19.77;15.00;;;;;;;;;;5070328;28;20418;-73
2023/12/10 13:09:45;;;;;;;0.65;0.65;;;;;;;;;;5070126;28;20130;-74
2023/12/10 13:13:10;;;;;;;2.40;1.90;;;;;;;;;;5076017;28;20113;-73
2023/12/10 13:15:47;;;;;;;0.20;0.20;;;;;;;;;;5072534;28;20028;-72
2023/12/10 13:18:26;;;;;;;14.15;5.45;;;;;;;;;;5072246;28;20109;-72
2023/12/10 13:20:57;;;;;;;12.75;4.45;;;;;;;;;;5090144;28;20044;-71
2023/12/10 13:23:23;;;;;;;0.80;0.52;;;;;;;;;;5090358;28;20475;-72
2023/12/10 13:25:50;;;;;;;2.15;1.70;;;;;;;;;;5090172;28;20028;-72
2023/12/10 13:28:16;;;;;;;0.52;0.52;;;;;;;;;;5090889;28;20475;-71
2023/12/10 13:30:57;;;;;;;8.85;4.70;;;;;;;;;;5090323;28;20134;-71
2023/12/10 13:34:20;;;;;;;1.05;0.85;;;;;;;;;;5076815;28;20034;-72
2023/12/10 13:36:50;;;;;;;4.70;3.17;;;;;;;;;;5027869;28;20117;-72
2023/12/10 13:39:44;;;;;;;0.60;0.60;;;;;;;;;;5047817;28;20043;-73
2023/12/10 13:42:14;;;;;;;0.20;0.20;;;;;;;;;;5071619;28;20032;-71
2023/12/10 13:44:43;;;;;;;0.90;0.82;;;;;;;;;;5090156;28;20031;-72
2023/12/10 13:47:18;;;;;;;1.58;0.73;;;;;;;;;;5090227;28;20024;-73
2023/12/10 13:52:59;;;;;;;2.28;0.68;;;;;;;;;;5072780;28;20557;-72
2023/12/10 13:55:29;;;;;;;0.80;0.80;;;;;;;;;;5069904;28;20471;-72
2023/12/10 13:58:13;;;;;;;;;;;;;;;;;;5069875;28;20032;-73
2023/12/10 14:00:48;;;;;;;0.40;0.40;;;;;;;;;;5069324;28;19920;-72
2023/12/10 14:03:30;;;;;;;0.43;0.43;;;;;;;;;;5069681;28;20028;-74
2023/12/10 14:06:22;;;;;;;0.82;0.82;;;;;;;;;;5071587;28;20035;-73
2023/12/10 14:09:01;;;;;;;0.20;0.20;;;;;;;;;;5079436;28;20463;-72
2023/12/10 14:11:34;;;;;;;0.40;0.40;;;;;;;;;;5079836;28;20503;-73
2023/12/10 14:17:32;;;;;;;0.50;0.50;;;;;;;;;;5062621;28;20119;-72
2023/12/10 14:20:39;;;;;;;0.20;0.20;;;;;;;;;;5089611;28;20027;-73
2023/12/10 14:23:11;;;;;;;0.35;0.35;;;;;;;;;;5089592;28;20032;-73
2023/12/10 14:26:05;;;;;;;0.20;0.20;;;;;;;;;;5087431;28;20369;-72
2023/12/10 14:28:32;;;;;;;0.68;0.68;;;;;;;;;;5089444;28;20464;-72
2023/12/10 14:31:01;;;;;;;1.20;1.10;;;;;;;;;;5071435;28;20388;-72
2023/12/10 14:33:28;;;;;;;0.57;0.57;;;;;;;;;;5089229;28;20494;-72
2023/12/10 14:39:34;;;;;;;0.70;0.70;;;;;;;;;;5027236;28;20057;-72
2023/12/10 14:42:22;;;;;;;0.30;0.30;;;;;;;;;;5089340;28;20668;-73
2023/12/10 14:45:06;;;;;;;0.28;0.28;;;;;;;;;;5069201;28;20534;-73
2023/12/10 14:48:09;;;;;;;0.77;0.77;;;;;;;;;;5051320;28;20040;-72
2023/12/10 14:50:49;;;;;;;2.03;1.95;;;;;;;;;;5068482;28;20552;-71
2023/12/10 14:56:54;;;;;;;0.30;0.30;;;;;;;;;;5018556;28;20172;-72
2023/12/10 14:59:41;;;;;;;0.40;0.40;;;;;;;;;;5072475;28;20028;-72
2023/12/10 15:02:17;;;;;;;0.60;0.60;;;;;;;;;;5071396;28;20024;-73
2023/12/10 15:05:29;;;;;;;0.35;0.35;;;;;;;;;;5080686;28;20063;-73
2023/12/10 15:09:00;;;;;;;0.40;0.40;;;;;;;;;;5066764;28;20040;-71
2023/12/10 15:11:27;;;;;;;0.90;0.90;;;;;;;;;;5077454;28;20461;-72
2023/12/10 15:14:14;;;;;;;0.50;0.50;;;;;;;;;;5067387;28;20399;-72
2023/12/10 15:17:24;;;;;;;0.57;0.57;;;;;;;;;;5088071;28;20051;-71
2023/12/10 15:20:29;;;;;;;0.40;0.40;;;;;;;;;;5070475;28;20048;-72
2023/12/10 15:23:28;;;;;;;0.55;0.55;;;;;;;;;;5072335;28;20024;-73
2023/12/10 15:26:02;;;;;;;0.65;0.65;;;;;;;;;;5072014;28;20052;-72
2023/12/10 15:29:05;;;;;;;0.20;0.20;;;;;;;;;;5072601;28;20214;-73
2023/12/10 15:31:56;;;;;;;0.22;0.22;;;;;;;;;;5066017;28;20566;-72
2023/12/10 15:38:20;;;;;;;0.20;0.20;;;;;;;;;;5008235;28;20073;-72
2023/12/10 15:41:48;;;;;;;0.20;0.20;;;;;;;;;;5010015;28;20138;-71